Time;durP1;ratioP1;P1;durP2;ratioP2;P2;SDS_P1;SDS_P2;PMS_P1;PMS_P2;Temp;Humidity;BMP_temperature;BMP_pressure;BME280_temperature;BME280_humidity;BME280_pressure;Samples;Min_cycle;Max_cycle;Signal;HPM_P1;HPM_P2
2022/09/16 00:01:22;;;;;;;9.43;5.90;;;;;;;;;;5069365;28;20078;-65
2022/09/16 00:03:52;;;;;;;8.35;6.57;;;;;;;;;;5072266;28;20394;-64
2022/09/16 00:06:23;;;;;;;11.25;6.55;;;;;;;;;;5072320;28;20174;-64
2022/09/16 00:08:50;;;;;;;8.35;6.80;;;;;;;;;;5071955;28;20091;-64
2022/09/16 00:11:17;;;;;;;13.48;6.50;;;;;;;;;;5071815;28;20397;-63
2022/09/16 00:13:44;;;;;;;12.52;6.50;;;;;;;;;;5072063;28;20036;-63
2022/09/16 00:16:16;;;;;;;8.77;6.68;;;;;;;;;;5072391;28;20078;-63
2022/09/16 00:18:42;;;;;;;9.30;6.97;;;;;;;;;;5072031;28;20108;-64
2022/09/16 00:21:09;;;;;;;9.30;6.80;;;;;;;;;;5071785;28;20154;-65
2022/09/16 00:23:35;;;;;;;9.27;5.80;;;;;;;;;;5071839;28;20040;-64
2022/09/16 00:26:01;;;;;;;11.20;6.60;;;;;;;;;;5071880;28;20035;-64
2022/09/16 00:28:27;;;;;;;9.60;6.80;;;;;;;;;;5071885;28;20045;-64
2022/09/16 00:30:53;;;;;;;7.65;6.00;;;;;;;;;;5071842;28;20468;-64
2022/09/16 00:33:19;;;;;;;10.30;5.80;;;;;;;;;;5071981;28;20045;-64
2022/09/16 00:35:46;;;;;;;8.68;5.63;;;;;;;;;;5071997;28;20056;-64
2022/09/16 00:38:12;;;;;;;6.15;5.20;;;;;;;;;;5071953;28;20361;-64
2022/09/16 00:40:46;;;;;;;7.63;5.18;;;;;;;;;;5072007;28;20024;-64
2022/09/16 00:43:17;;;;;;;6.80;5.78;;;;;;;;;;5070501;28;20124;-63
2022/09/16 00:45:45;;;;;;;8.88;6.20;;;;;;;;;;5071658;28;20029;-62
2022/09/16 00:48:18;;;;;;;9.10;5.97;;;;;;;;;;5071661;28;20029;-62
2022/09/16 00:50:50;;;;;;;6.88;5.72;;;;;;;;;;5071644;28;20044;-63
2022/09/16 00:53:25;;;;;;;7.60;5.28;;;;;;;;;;5070426;28;20101;-64
2022/09/16 00:55:53;;;;;;;7.97;6.60;;;;;;;;;;5071439;28;20029;-65
2022/09/16 00:58:38;;;;;;;7.72;6.32;;;;;;;;;;5071620;28;20475;-66
2022/09/16 01:01:04;;;;;;;9.95;6.68;;;;;;;;;;5071801;28;20040;-66
2022/09/16 01:03:34;;;;;;;13.48;7.22;;;;;;;;;;5071767;28;20021;-64
2022/09/16 01:06:00;;;;;;;21.90;8.07;;;;;;;;;;5071514;28;20119;-63
2022/09/16 01:08:25;;;;;;;15.13;7.32;;;;;;;;;;5071670;28;20104;-61
2022/09/16 01:10:51;;;;;;;10.60;6.10;;;;;;;;;;5074191;28;20037;-65
2022/09/16 01:13:17;;;;;;;9.57;5.30;;;;;;;;;;5075524;28;20402;-62
2022/09/16 01:16:10;;;;;;;14.48;6.88;;;;;;;;;;5074303;28;20036;-62
2022/09/16 01:18:54;;;;;;;10.95;5.97;;;;;;;;;;5075686;28;20403;-63
2022/09/16 01:21:43;;;;;;;10.45;5.80;;;;;;;;;;5075336;28;20390;-66
2022/09/16 01:24:47;;;;;;;6.38;5.38;;;;;;;;;;5075060;28;20074;-62
2022/09/16 01:27:31;;;;;;;6.95;5.30;;;;;;;;;;5075470;28;20056;-64
2022/09/16 01:29:57;;;;;;;10.10;5.82;;;;;;;;;;5075038;28;20040;-63
2022/09/16 01:32:44;;;;;;;8.57;5.90;;;;;;;;;;5075131;28;20047;-62
2022/09/16 01:35:36;;;;;;;6.22;4.70;;;;;;;;;;5075141;28;20060;-65
2022/09/16 01:38:15;;;;;;;9.25;5.57;;;;;;;;;;5074118;28;20043;-63
2022/09/16 01:40:53;;;;;;;8.70;5.22;;;;;;;;;;5074830;28;20541;-63
2022/09/16 01:43:38;;;;;;;8.65;5.68;;;;;;;;;;5074680;28;20028;-63
2022/09/16 01:46:38;;;;;;;12.23;5.47;;;;;;;;;;5075265;28;20032;-63
2022/09/16 01:49:21;;;;;;;8.95;6.10;;;;;;;;;;5075058;28;20468;-63
2022/09/16 01:51:55;;;;;;;9.30;6.60;;;;;;;;;;5075118;28;20036;-63
2022/09/16 01:54:41;;;;;;;8.02;5.82;;;;;;;;;;5074880;28;20032;-63
2022/09/16 01:57:18;;;;;;;7.03;5.50;;;;;;;;;;5073384;28;20037;-63
2022/09/16 01:59:52;;;;;;;9.38;5.93;;;;;;;;;;5066434;28;20029;-63
2022/09/16 02:02:41;;;;;;;10.13;6.20;;;;;;;;;;5059016;28;20041;-63
2022/09/16 02:05:23;;;;;;;8.20;6.68;;;;;;;;;;5053587;28;20028;-64
2022/09/16 02:07:55;;;;;;;13.73;6.45;;;;;;;;;;5054532;28;20029;-63
2022/09/16 02:10:30;;;;;;;10.70;7.00;;;;;;;;;;5054333;28;20037;-63
2022/09/16 02:13:07;;;;;;;9.70;6.55;;;;;;;;;;5054379;28;20036;-62
2022/09/16 02:15:34;;;;;;;10.63;5.97;;;;;;;;;;5054397;28;20033;-63
2022/09/16 02:18:05;;;;;;;8.57;5.82;;;;;;;;;;5054467;28;20029;-63
2022/09/16 02:20:35;;;;;;;8.45;5.82;;;;;;;;;;5054326;28;20035;-64
2022/09/16 02:23:07;;;;;;;8.55;5.93;;;;;;;;;;5053847;28;20033;-62
2022/09/16 02:25:37;;;;;;;10.05;6.72;;;;;;;;;;5054320;28;20063;-63
2022/09/16 02:28:10;;;;;;;9.63;6.43;;;;;;;;;;5055211;28;20029;-63
2022/09/16 02:30:35;;;;;;;;;;;;;;;;;;5056288;28;20411;-63
2022/09/16 02:33:08;;;;;;;15.18;8.27;;;;;;;;;;5053531;28;19921;-63
2022/09/16 02:35:36;;;;;;;11.63;6.57;;;;;;;;;;5053908;28;20040;-64
2022/09/16 02:38:16;;;;;;;5.93;5.13;;;;;;;;;;5053840;28;20029;-64
2022/09/16 02:40:53;;;;;;;9.63;6.03;;;;;;;;;;5053368;28;20060;-64
2022/09/16 02:43:19;;;;;;;11.30;6.30;;;;;;;;;;5053689;28;20029;-64
2022/09/16 02:46:12;;;;;;;18.50;12.38;;;;;;;;;;5053915;28;20029;-65
2022/09/16 02:48:55;;;;;;;13.30;7.55;;;;;;;;;;5053624;28;20037;-65
2022/09/16 02:51:21;;;;;;;13.17;8.57;;;;;;;;;;5053737;28;20545;-64
2022/09/16 02:53:59;;;;;;;15.88;7.55;;;;;;;;;;5053921;28;20032;-63
2022/09/16 02:56:35;;;;;;;13.43;7.07;;;;;;;;;;5053570;28;20495;-66
2022/09/16 02:59:04;;;;;;;9.93;5.90;;;;;;;;;;5053369;28;20568;-63
2022/09/16 03:01:32;;;;;;;9.20;5.53;;;;;;;;;;5053058;28;20021;-63
2022/09/16 03:03:58;;;;;;;8.80;6.35;;;;;;;;;;5053555;28;20425;-63
2022/09/16 03:06:27;;;;;;;9.25;6.10;;;;;;;;;;5053651;28;20108;-64
2022/09/16 03:08:59;;;;;;;10.10;5.68;;;;;;;;;;5052199;28;20029;-64
2022/09/16 03:11:44;;;;;;;14.45;6.00;;;;;;;;;;5053143;28;20036;-64
2022/09/16 03:14:35;;;;;;;11.45;6.47;;;;;;;;;;5052874;28;20055;-64
2022/09/16 03:17:17;;;;;;;9.63;6.25;;;;;;;;;;5053020;28;20039;-63
2022/09/16 03:20:21;;;;;;;13.45;6.68;;;;;;;;;;5057231;28;20033;-63
2022/09/16 03:23:05;;;;;;;10.40;6.00;;;;;;;;;;5062513;28;20387;-63
2022/09/16 03:26:02;;;;;;;13.00;6.70;;;;;;;;;;5066221;28;20090;-62
2022/09/16 03:28:46;;;;;;;11.98;6.90;;;;;;;;;;5052934;28;20112;-61
2022/09/16 03:31:38;;;;;;;;;;;;;;;;;;5053451;28;20036;-62
2022/09/16 03:34:15;;;;;;;15.57;7.55;;;;;;;;;;5050347;28;19916;-62
2022/09/16 03:36:49;;;;;;;11.43;6.85;;;;;;;;;;5052822;28;20029;-61
2022/09/16 03:39:15;;;;;;;9.80;6.80;;;;;;;;;;5052833;28;20033;-61
2022/09/16 03:41:41;;;;;;;16.67;7.25;;;;;;;;;;5052607;28;20036;-61
2022/09/16 03:44:07;;;;;;;12.95;7.40;;;;;;;;;;5052503;28;20041;-62
2022/09/16 03:46:33;;;;;;;11.85;6.97;;;;;;;;;;5051392;28;20025;-62
2022/09/16 03:48:59;;;;;;;15.60;7.38;;;;;;;;;;5052298;28;20048;-62
2022/09/16 03:51:25;;;;;;;13.02;6.88;;;;;;;;;;5057852;28;20042;-62
2022/09/16 03:53:52;;;;;;;7.38;5.90;;;;;;;;;;5073468;28;20051;-62
2022/09/16 03:56:18;;;;;;;11.32;7.72;;;;;;;;;;5071293;28;20028;-65
2022/09/16 03:58:46;;;;;;;10.55;6.65;;;;;;;;;;5057341;28;20294;-63
2022/09/16 04:01:13;;;;;;;9.63;7.07;;;;;;;;;;5052755;28;20021;-64
2022/09/16 04:03:39;;;;;;;15.73;7.20;;;;;;;;;;5052923;28;20033;-63
2022/09/16 04:06:05;;;;;;;11.85;6.60;;;;;;;;;;5052390;28;20523;-63
2022/09/16 04:08:31;;;;;;;8.10;6.13;;;;;;;;;;5052496;28;20037;-63
2022/09/16 04:11:06;;;;;;;10.93;7.70;;;;;;;;;;5053145;28;20016;-63
2022/09/16 04:13:34;;;;;;;14.38;8.63;;;;;;;;;;5053045;28;20563;-63
2022/09/16 04:16:01;;;;;;;11.63;7.47;;;;;;;;;;5055069;28;20095;-63
2022/09/16 04:18:29;;;;;;;10.73;7.22;;;;;;;;;;5054107;28;20439;-63
2022/09/16 04:21:00;;;;;;;12.40;7.53;;;;;;;;;;5067420;28;20066;-65
2022/09/16 04:23:27;;;;;;;10.48;7.97;;;;;;;;;;5073151;28;20029;-62
2022/09/16 04:25:58;;;;;;;13.50;7.75;;;;;;;;;;5072463;28;20021;-64
2022/09/16 04:28:24;;;;;;;10.95;8.07;;;;;;;;;;5072985;28;20035;-63
2022/09/16 04:30:50;;;;;;;16.95;8.52;;;;;;;;;;5063455;28;20086;-64
2022/09/16 04:33:16;;;;;;;16.02;7.05;;;;;;;;;;5052405;28;20045;-68
2022/09/16 04:35:43;;;;;;;12.77;7.32;;;;;;;;;;5051761;28;20365;-68
2022/09/16 04:38:09;;;;;;;11.32;7.18;;;;;;;;;;5052686;28;20040;-64
2022/09/16 04:40:37;;;;;;;15.07;7.03;;;;;;;;;;5071357;28;20078;-63
2022/09/16 04:43:03;;;;;;;12.18;6.53;;;;;;;;;;5065295;28;20480;-63
2022/09/16 04:45:29;;;;;;;11.93;6.82;;;;;;;;;;5052007;28;20021;-63
2022/09/16 04:47:56;;;;;;;14.15;6.28;;;;;;;;;;5052461;28;20076;-63
2022/09/16 04:50:22;;;;;;;11.82;6.43;;;;;;;;;;5052409;28;20043;-63
2022/09/16 04:52:50;;;;;;;20.20;7.50;;;;;;;;;;5050882;28;20112;-65
2022/09/16 04:55:22;;;;;;;13.82;6.88;;;;;;;;;;5069988;28;20032;-64
2022/09/16 04:57:48;;;;;;;12.88;7.05;;;;;;;;;;5055080;28;20040;-63
2022/09/16 05:00:14;;;;;;;13.68;6.50;;;;;;;;;;5051909;28;20021;-64
2022/09/16 05:02:44;;;;;;;15.93;7.00;;;;;;;;;;5050726;28;20480;-63
2022/09/16 05:05:11;;;;;;;12.90;5.82;;;;;;;;;;5051153;28;20100;-62
2022/09/16 05:07:36;;;;;;;12.95;5.60;;;;;;;;;;5068669;28;20029;-62
2022/09/16 05:10:03;;;;;;;9.80;4.80;;;;;;;;;;5071458;28;20375;-62
2022/09/16 05:12:29;;;;;;;13.50;5.97;;;;;;;;;;5071932;28;20047;-61
2022/09/16 05:14:55;;;;;;;16.17;5.57;;;;;;;;;;5071360;28;20037;-62
2022/09/16 05:17:21;;;;;;;10.30;4.75;;;;;;;;;;5064701;28;20043;-62
2022/09/16 05:19:47;;;;;;;10.43;4.95;;;;;;;;;;5071219;28;20028;-62
2022/09/16 05:22:12;;;;;;;9.73;4.60;;;;;;;;;;5071435;28;20062;-64
2022/09/16 05:24:38;;;;;;;10.43;4.53;;;;;;;;;;5070074;28;20029;-63
2022/09/16 05:27:04;;;;;;;7.00;3.70;;;;;;;;;;5051477;28;20040;-60
2022/09/16 05:29:30;;;;;;;11.32;4.43;;;;;;;;;;5058536;28;20032;-62
2022/09/16 05:31:56;;;;;;;10.18;4.20;;;;;;;;;;5064352;28;20102;-64
2022/09/16 05:34:27;;;;;;;21.48;4.80;;;;;;;;;;5060372;28;20452;-61
2022/09/16 05:36:54;;;;;;;9.50;4.00;;;;;;;;;;5056352;28;20143;-63
2022/09/16 05:39:21;;;;;;;9.85;4.45;;;;;;;;;;5066051;28;20037;-63
2022/09/16 05:41:52;;;;;;;8.90;3.95;;;;;;;;;;5071597;28;20036;-64
2022/09/16 05:44:18;;;;;;;9.82;4.90;;;;;;;;;;5069405;28;20148;-61
2022/09/16 05:46:44;;;;;;;15.25;5.00;;;;;;;;;;5071355;28;20048;-63
2022/09/16 05:49:10;;;;;;;13.57;5.40;;;;;;;;;;5070312;28;20090;-61
2022/09/16 05:51:37;;;;;;;13.85;4.78;;;;;;;;;;5071321;28;20490;-62
2022/09/16 05:54:03;;;;;;;9.98;4.55;;;;;;;;;;5069302;28;20072;-63
2022/09/16 05:56:30;;;;;;;9.85;3.95;;;;;;;;;;5065504;28;20074;-63
2022/09/16 05:58:58;;;;;;;15.27;4.82;;;;;;;;;;5075133;28;20379;-61
2022/09/16 06:01:27;;;;;;;13.73;5.07;;;;;;;;;;5074931;28;20044;-62
2022/09/16 06:03:53;;;;;;;8.98;4.32;;;;;;;;;;5075169;28;20690;-61
2022/09/16 06:06:23;;;;;;;13.98;5.30;;;;;;;;;;5074816;28;20474;-62
2022/09/16 06:08:50;;;;;;;11.95;5.10;;;;;;;;;;5074283;28;20036;-61
2022/09/16 06:11:16;;;;;;;11.32;4.03;;;;;;;;;;5064343;28;20372;-63
2022/09/16 06:13:42;;;;;;;11.60;4.70;;;;;;;;;;5054769;28;20029;-61
2022/09/16 06:16:09;;;;;;;24.20;6.90;;;;;;;;;;5054760;28;20132;-61
2022/09/16 06:18:36;;;;;;;8.63;4.28;;;;;;;;;;5054952;28;20029;-62
2022/09/16 06:21:05;;;;;;;10.63;5.13;;;;;;;;;;5061146;28;20029;-63
2022/09/16 06:23:31;;;;;;;13.27;5.28;;;;;;;;;;5074517;28;20106;-63
2022/09/16 06:26:05;;;;;;;11.65;5.47;;;;;;;;;;5066546;28;20106;-61
2022/09/16 06:28:31;;;;;;;23.05;7.65;;;;;;;;;;5054772;28;20396;-61
2022/09/16 06:31:13;;;;;;;27.80;8.77;;;;;;;;;;5058266;28;20038;-63
2022/09/16 06:33:39;;;;;;;29.83;9.68;;;;;;;;;;5059739;28;20399;-60
2022/09/16 06:36:12;;;;;;;25.63;9.73;;;;;;;;;;5067269;28;20036;-62
2022/09/16 06:38:38;;;;;;;27.13;10.40;;;;;;;;;;5053836;28;20052;-64
2022/09/16 06:41:07;;;;;;;21.02;9.50;;;;;;;;;;5058370;28;20021;-63
2022/09/16 06:43:34;;;;;;;23.88;10.18;;;;;;;;;;5073806;28;20506;-63
2022/09/16 06:46:02;;;;;;;22.35;9.50;;;;;;;;;;5072957;28;20025;-62
2022/09/16 06:48:30;;;;;;;18.83;8.73;;;;;;;;;;5073879;28;20034;-66
2022/09/16 06:51:01;;;;;;;23.40;9.77;;;;;;;;;;5074066;28;20371;-65
2022/09/16 06:53:28;;;;;;;29.85;9.95;;;;;;;;;;5073935;28;20112;-66
2022/09/16 06:55:54;;;;;;;20.42;9.52;;;;;;;;;;5070063;28;20017;-67
2022/09/16 06:58:20;;;;;;;31.15;10.32;;;;;;;;;;5062839;28;20115;-68
2022/09/16 07:00:46;;;;;;;19.23;9.18;;;;;;;;;;5068876;28;20055;-67
2022/09/16 07:03:12;;;;;;;19.38;9.55;;;;;;;;;;5063424;28;20056;-66
2022/09/16 07:05:37;;;;;;;24.20;8.82;;;;;;;;;;5063158;28;20022;-65
2022/09/16 07:08:03;;;;;;;18.23;8.55;;;;;;;;;;5061983;28;20336;-65
2022/09/16 07:10:29;;;;;;;21.02;9.05;;;;;;;;;;5070680;28;20056;-66
2022/09/16 07:12:55;;;;;;;15.05;7.93;;;;;;;;;;5054629;28;20036;-65
2022/09/16 07:15:21;;;;;;;19.35;8.57;;;;;;;;;;5059529;28;20021;-65
2022/09/16 07:17:51;;;;;;;18.40;8.13;;;;;;;;;;5061493;28;20067;-66
2022/09/16 07:20:17;;;;;;;21.60;8.43;;;;;;;;;;5063375;28;20024;-66
2022/09/16 07:22:43;;;;;;;16.52;8.65;;;;;;;;;;5063129;28;20421;-65
2022/09/16 07:25:09;;;;;;;15.13;8.10;;;;;;;;;;5058911;28;20384;-66
2022/09/16 07:27:35;;;;;;;19.33;8.05;;;;;;;;;;5063836;28;20020;-65
2022/09/16 07:30:01;;;;;;;19.02;7.93;;;;;;;;;;5060658;28;20021;-65
2022/09/16 07:32:27;;;;;;;17.08;6.80;;;;;;;;;;5059962;28;20388;-67
2022/09/16 07:34:52;;;;;;;17.10;6.53;;;;;;;;;;5067121;28;20050;-67
2022/09/16 07:37:18;;;;;;;16.25;7.05;;;;;;;;;;5072313;28;20471;-65
2022/09/16 07:39:44;;;;;;;15.13;7.07;;;;;;;;;;5072757;28;20112;-64
2022/09/16 07:42:10;;;;;;;15.93;7.20;;;;;;;;;;5066070;28;20108;-66
2022/09/16 07:44:36;;;;;;;13.75;6.70;;;;;;;;;;5056855;28;20109;-64
2022/09/16 07:47:02;;;;;;;19.77;6.88;;;;;;;;;;5057607;28;20613;-65
2022/09/16 07:49:28;;;;;;;16.77;7.03;;;;;;;;;;5065767;28;20052;-65
2022/09/16 07:51:53;;;;;;;12.93;6.70;;;;;;;;;;5071909;28;20024;-65
2022/09/16 07:54:20;;;;;;;17.02;6.20;;;;;;;;;;5071394;28;20040;-65
2022/09/16 07:56:46;;;;;;;14.02;5.93;;;;;;;;;;5072280;28;20025;-66
2022/09/16 07:59:15;;;;;;;15.60;5.75;;;;;;;;;;5072953;28;20040;-66
2022/09/16 08:01:41;;;;;;;11.18;4.88;;;;;;;;;;5072840;28;20032;-65
2022/09/16 08:04:06;;;;;;;15.23;5.03;;;;;;;;;;5071965;28;20029;-65
2022/09/16 08:06:33;;;;;;;13.02;5.13;;;;;;;;;;5072670;28;20380;-70
2022/09/16 08:09:00;;;;;;;9.38;5.25;;;;;;;;;;5072770;28;20067;-68
2022/09/16 08:11:27;;;;;;;11.85;4.60;;;;;;;;;;5072473;28;20020;-68
2022/09/16 08:13:53;;;;;;;13.10;4.75;;;;;;;;;;5072162;28;20082;-66
2022/09/16 08:16:20;;;;;;;9.57;3.90;;;;;;;;;;5066984;28;20067;-65
2022/09/16 08:18:48;;;;;;;14.75;4.00;;;;;;;;;;5052291;28;20078;-69
2022/09/16 08:21:18;;;;;;;13.13;3.95;;;;;;;;;;5067085;28;20048;-68
2022/09/16 08:23:44;;;;;;;7.60;3.40;;;;;;;;;;5052349;28;20029;-68
2022/09/16 08:26:11;;;;;;;6.65;3.30;;;;;;;;;;5052101;28;20095;-66
2022/09/16 08:28:39;;;;;;;15.15;6.93;;;;;;;;;;5062313;28;20119;-65
2022/09/16 08:31:04;;;;;;;11.82;3.85;;;;;;;;;;5072244;28;20024;-66
2022/09/16 08:33:31;;;;;;;10.75;3.78;;;;;;;;;;5072097;28;20071;-67
2022/09/16 08:36:22;;;;;;;9.77;3.75;;;;;;;;;;5072196;28;20107;-66
2022/09/16 08:38:50;;;;;;;10.98;4.05;;;;;;;;;;5072100;28;20037;-66
2022/09/16 08:41:44;;;;;;;10.27;3.70;;;;;;;;;;5070566;28;20025;-67
2022/09/16 08:44:31;;;;;;;7.45;3.38;;;;;;;;;;5070919;28;20395;-67
2022/09/16 08:47:05;;;;;;;10.95;3.67;;;;;;;;;;5071772;28;20043;-66
2022/09/16 08:49:40;;;;;;;12.27;3.97;;;;;;;;;;5072100;28;20024;-66
2022/09/16 08:52:17;;;;;;;6.53;3.05;;;;;;;;;;5072051;28;20032;-66
2022/09/16 08:54:48;;;;;;;7.20;3.45;;;;;;;;;;5071506;28;20037;-65
2022/09/16 08:57:21;;;;;;;9.63;3.28;;;;;;;;;;5071940;28;20085;-65
2022/09/16 09:00:12;;;;;;;8.18;3.25;;;;;;;;;;5069460;28;20029;-67
2022/09/16 09:02:47;;;;;;;10.07;3.42;;;;;;;;;;5064404;28;20044;-66
2022/09/16 09:05:23;;;;;;;14.95;3.53;;;;;;;;;;5058314;28;20064;-66
2022/09/16 09:08:24;;;;;;;9.73;3.25;;;;;;;;;;5052197;28;20119;-66
2022/09/16 09:10:58;;;;;;;7.25;3.25;;;;;;;;;;5050762;28;20496;-65
2022/09/16 09:13:30;;;;;;;10.40;3.40;;;;;;;;;;5059363;28;20051;-66
2022/09/16 09:16:22;;;;;;;9.50;3.35;;;;;;;;;;5060230;28;20082;-65
2022/09/16 09:19:24;;;;;;;10.50;3.50;;;;;;;;;;5057703;28;20417;-66
2022/09/16 09:21:58;;;;;;;17.42;4.60;;;;;;;;;;5053455;28;20079;-65
2022/09/16 09:24:48;;;;;;;8.70;3.30;;;;;;;;;;5058604;28;20028;-66
2022/09/16 09:27:57;;;;;;;12.55;3.90;;;;;;;;;;5071065;28;20040;-67
2022/09/16 09:30:25;;;;;;;14.85;4.22;;;;;;;;;;5078918;28;20447;-66
2022/09/16 09:33:03;;;;;;;7.35;3.33;;;;;;;;;;5071887;28;20525;-66
2022/09/16 09:36:09;;;;;;;9.27;3.08;;;;;;;;;;5074973;28;20028;-66
2022/09/16 09:38:51;;;;;;;9.93;3.42;;;;;;;;;;5070749;28;20495;-65
2022/09/16 09:41:23;;;;;;;13.25;3.90;;;;;;;;;;5060255;28;20033;-66
2022/09/16 09:44:04;;;;;;;6.97;3.90;;;;;;;;;;5068930;28;20029;-67
2022/09/16 09:46:37;;;;;;;6.55;3.33;;;;;;;;;;5068184;28;20047;-67
2022/09/16 09:49:30;;;;;;;10.70;3.55;;;;;;;;;;5070965;28;20392;-67
2022/09/16 09:52:06;;;;;;;9.13;3.13;;;;;;;;;;5068346;28;20036;-65
2022/09/16 09:54:37;;;;;;;8.95;3.33;;;;;;;;;;5066827;28;20068;-67
2022/09/16 09:57:09;;;;;;;13.70;4.03;;;;;;;;;;5069254;28;20036;-66
2022/09/16 09:59:47;;;;;;;9.60;3.70;;;;;;;;;;5067835;28;20025;-67
2022/09/16 10:02:16;;;;;;;8.88;3.30;;;;;;;;;;5056523;28;20036;-66
2022/09/16 10:04:43;;;;;;;7.97;3.30;;;;;;;;;;5069405;28;20108;-65
2022/09/16 10:07:11;;;;;;;10.57;3.58;;;;;;;;;;5062159;28;20488;-66
2022/09/16 10:09:54;;;;;;;9.77;3.88;;;;;;;;;;5068387;28;20134;-66
2022/09/16 10:12:46;;;;;;;54.85;10.88;;;;;;;;;;5054431;28;20389;-67
2022/09/16 10:15:27;;;;;;;9.80;4.07;;;;;;;;;;5067858;28;20044;-66
2022/09/16 10:17:54;;;;;;;9.50;3.08;;;;;;;;;;5062867;28;20447;-68
2022/09/16 10:20:25;;;;;;;8.98;2.90;;;;;;;;;;5073134;28;20028;-67
2022/09/16 10:23:15;;;;;;;9.40;3.45;;;;;;;;;;5064032;28;20033;-67
2022/09/16 10:25:42;;;;;;;11.38;3.42;;;;;;;;;;5066565;28;20076;-68
2022/09/16 10:28:23;;;;;;;8.07;3.60;;;;;;;;;;5067272;28;20025;-67
2022/09/16 10:30:55;;;;;;;6.93;3.15;;;;;;;;;;5064166;28;20029;-64
2022/09/16 10:33:27;;;;;;;10.50;3.20;;;;;;;;;;5063138;28;20071;-65
2022/09/16 10:35:57;;;;;;;4.63;2.90;;;;;;;;;;5065878;28;20044;-68
2022/09/16 10:38:26;;;;;;;10.70;3.63;;;;;;;;;;5062891;28;20032;-68
2022/09/16 10:41:00;;;;;;;18.98;5.45;;;;;;;;;;5065360;28;20033;-65
2022/09/16 10:43:29;;;;;;;16.10;3.67;;;;;;;;;;5062746;28;20032;-66
2022/09/16 10:45:55;;;;;;;9.82;2.85;;;;;;;;;;5067165;28;20024;-66
2022/09/16 10:48:25;;;;;;;10.45;3.15;;;;;;;;;;5065476;28;20050;-67
2022/09/16 10:50:59;;;;;;;13.68;3.25;;;;;;;;;;5067197;28;20414;-68
2022/09/16 10:53:37;;;;;;;14.85;3.63;;;;;;;;;;5059367;28;20024;-66
2022/09/16 10:56:05;;;;;;;9.90;3.40;;;;;;;;;;5067795;28;20025;-67
2022/09/16 10:58:31;;;;;;;12.00;3.35;;;;;;;;;;5066287;28;20129;-67
2022/09/16 11:00:58;;;;;;;17.73;3.35;;;;;;;;;;5062588;28;20492;-69
2022/09/16 11:03:39;;;;;;;6.28;3.00;;;;;;;;;;5067487;28;20017;-64
2022/09/16 11:06:31;;;;;;;9.52;2.80;;;;;;;;;;5076249;28;20044;-65
2022/09/16 11:09:24;;;;;;;7.88;2.42;;;;;;;;;;5064153;28;20388;-66
2022/09/16 11:12:04;;;;;;;8.60;2.90;;;;;;;;;;5062303;28;20036;-66
2022/09/16 11:14:44;;;;;;;12.48;2.75;;;;;;;;;;5061766;28;20032;-67
2022/09/16 11:17:28;;;;;;;12.60;2.63;;;;;;;;;;5061412;28;20020;-67
2022/09/16 11:20:16;;;;;;;11.52;3.20;;;;;;;;;;5067276;28;20032;-68
2022/09/16 11:22:48;;;;;;;10.25;2.47;;;;;;;;;;5067870;28;20024;-64
2022/09/16 11:25:14;;;;;;;;;;;;;;;;;;5068812;28;20039;-67
2022/09/16 11:27:42;;;;;;;15.70;3.20;;;;;;;;;;5066226;28;20004;-66
2022/09/16 11:30:15;;;;;;;15.85;3.25;;;;;;;;;;5072213;28;20125;-67
2022/09/16 11:32:59;;;;;;;10.18;2.40;;;;;;;;;;5066724;28;20049;-67
2022/09/16 11:35:31;;;;;;;7.75;3.00;;;;;;;;;;5064956;28;20039;-67
2022/09/16 11:38:00;;;;;;;7.77;2.60;;;;;;;;;;5063946;28;20032;-69
2022/09/16 11:40:42;;;;;;;7.55;2.60;;;;;;;;;;5071876;28;20021;-66
2022/09/16 11:43:48;;;;;;;11.13;2.50;;;;;;;;;;5066083;28;20041;-67
2022/09/16 11:46:52;;;;;;;10.52;2.85;;;;;;;;;;5062944;28;20548;-69
2022/09/16 11:49:24;;;;;;;11.00;2.60;;;;;;;;;;5064097;28;20031;-66
2022/09/16 11:52:16;;;;;;;14.43;2.95;;;;;;;;;;5067504;28;20082;-67
2022/09/16 11:55:15;;;;;;;13.98;2.85;;;;;;;;;;5061505;28;20037;-65
2022/09/16 11:57:45;;;;;;;12.43;2.33;;;;;;;;;;5063117;28;20390;-64
2022/09/16 12:00:18;;;;;;;9.57;2.97;;;;;;;;;;5067902;28;20032;-65
2022/09/16 12:03:02;;;;;;;10.35;2.60;;;;;;;;;;5061089;28;20036;-64
2022/09/16 12:05:52;;;;;;;9.05;2.10;;;;;;;;;;5065046;28;20021;-65
2022/09/16 12:08:24;;;;;;;11.10;2.85;;;;;;;;;;5062796;28;20063;-65
2022/09/16 12:11:04;;;;;;;13.57;3.28;;;;;;;;;;5059694;28;20111;-66
2022/09/16 12:13:43;;;;;;;13.27;2.38;;;;;;;;;;5065179;28;20447;-68
2022/09/16 12:16:16;;;;;;;12.40;2.20;;;;;;;;;;5065870;28;20124;-66
2022/09/16 12:18:49;;;;;;;11.38;2.28;;;;;;;;;;5064250;28;20045;-66
2022/09/16 12:21:21;;;;;;;7.93;2.60;;;;;;;;;;5068567;28;20033;-67
2022/09/16 12:23:50;;;;;;;10.80;2.55;;;;;;;;;;5064988;28;20083;-66
2022/09/16 12:26:24;;;;;;;14.85;2.40;;;;;;;;;;5069252;28;20483;-67
2022/09/16 12:28:58;;;;;;;9.70;2.30;;;;;;;;;;5064819;28;20484;-67
2022/09/16 12:31:35;;;;;;;12.35;2.75;;;;;;;;;;5064206;28;20383;-68
2022/09/16 12:34:12;;;;;;;13.85;2.60;;;;;;;;;;5063902;28;20041;-67
2022/09/16 12:36:43;;;;;;;14.77;2.92;;;;;;;;;;5062421;28;20101;-67
2022/09/16 12:39:11;;;;;;;14.93;2.92;;;;;;;;;;5066322;28;20025;-66
2022/09/16 12:42:02;;;;;;;11.35;2.67;;;;;;;;;;5064988;28;20066;-66
2022/09/16 12:44:39;;;;;;;8.65;2.20;;;;;;;;;;5063926;28;20132;-64
2022/09/16 12:47:13;;;;;;;11.65;2.40;;;;;;;;;;5065454;28;20035;-65
2022/09/16 12:49:52;;;;;;;8.65;2.38;;;;;;;;;;5068049;28;20075;-64
2022/09/16 12:52:43;;;;;;;18.33;3.13;;;;;;;;;;5060580;28;20033;-65
2022/09/16 12:55:27;;;;;;;11.20;2.88;;;;;;;;;;5069437;28;20039;-66
2022/09/16 12:57:52;;;;;;;12.48;2.50;;;;;;;;;;5067287;28;20040;-67
2022/09/16 13:00:25;;;;;;;11.98;2.53;;;;;;;;;;5063657;28;20353;-67
2022/09/16 13:02:56;;;;;;;15.07;2.80;;;;;;;;;;5065511;28;20028;-67
2022/09/16 13:05:30;;;;;;;14.02;3.67;;;;;;;;;;5070532;28;20040;-69
2022/09/16 13:08:07;;;;;;;12.02;3.53;;;;;;;;;;5070897;28;20952;-68
2022/09/16 13:10:38;;;;;;;12.68;2.55;;;;;;;;;;5074097;28;20035;-67
2022/09/16 13:13:06;;;;;;;12.38;2.85;;;;;;;;;;5065028;28;20114;-67
2022/09/16 13:15:38;;;;;;;10.15;2.50;;;;;;;;;;5071302;28;20020;-68
2022/09/16 13:18:12;;;;;;;16.20;3.30;;;;;;;;;;5071278;28;20041;-67
2022/09/16 13:20:50;;;;;;;10.05;2.33;;;;;;;;;;5069662;28;20383;-69
2022/09/16 13:23:25;;;;;;;7.10;2.17;;;;;;;;;;5068770;28;20131;-70
2022/09/16 13:26:01;;;;;;;9.73;2.20;;;;;;;;;;5069970;28;20051;-70
2022/09/16 13:28:36;;;;;;;13.13;2.05;;;;;;;;;;5067233;28;20025;-69
2022/09/16 13:31:11;;;;;;;10.07;2.10;;;;;;;;;;5074348;28;20407;-69
2022/09/16 13:34:07;;;;;;;13.23;2.78;;;;;;;;;;5065685;28;20041;-70
2022/09/16 13:36:33;;;;;;;16.23;2.72;;;;;;;;;;5059902;28;20546;-69
2022/09/16 13:39:02;;;;;;;9.75;2.38;;;;;;;;;;5064228;28;20021;-69
2022/09/16 13:41:35;;;;;;;11.85;2.75;;;;;;;;;;5055278;28;20083;-69
2022/09/16 13:44:21;;;;;;;12.30;2.72;;;;;;;;;;5054920;28;20368;-66
2022/09/16 13:46:47;;;;;;;10.77;2.50;;;;;;;;;;5056018;28;20036;-65
2022/09/16 13:49:26;;;;;;;14.98;2.42;;;;;;;;;;5055740;28;20376;-69
2022/09/16 13:51:52;;;;;;;10.30;2.38;;;;;;;;;;5056023;28;20025;-67
2022/09/16 13:54:21;;;;;;;15.07;3.30;;;;;;;;;;5055913;28;20578;-65
2022/09/16 13:56:47;;;;;;;16.02;2.47;;;;;;;;;;5056003;28;20037;-65
2022/09/16 13:59:25;;;;;;;12.75;2.28;;;;;;;;;;5055696;28;20024;-66
2022/09/16 14:02:14;;;;;;;10.73;2.60;;;;;;;;;;5055887;28;20037;-67
2022/09/16 14:05:04;;;;;;;10.80;2.63;;;;;;;;;;5055901;28;20072;-66
2022/09/16 14:07:33;;;;;;;14.35;2.70;;;;;;;;;;5055527;28;20025;-65
2022/09/16 14:10:18;;;;;;;14.77;2.60;;;;;;;;;;5055524;28;20025;-65
2022/09/16 14:13:11;;;;;;;10.45;2.38;;;;;;;;;;5055610;28;20040;-66
2022/09/16 14:15:41;;;;;;;14.70;2.70;;;;;;;;;;5055855;28;20112;-67
2022/09/16 14:18:13;;;;;;;14.07;2.50;;;;;;;;;;5054827;28;20040;-66
2022/09/16 14:20:57;;;;;;;14.85;2.35;;;;;;;;;;5055350;28;20059;-66
2022/09/16 14:23:24;;;;;;;10.98;2.20;;;;;;;;;;5055512;28;20450;-66
2022/09/16 14:25:50;;;;;;;11.25;2.50;;;;;;;;;;5055263;28;20029;-66
2022/09/16 14:28:24;;;;;;;15.60;2.83;;;;;;;;;;5055072;28;20078;-67
2022/09/16 14:30:58;;;;;;;10.15;2.58;;;;;;;;;;5054216;28;20033;-66
2022/09/16 14:33:30;;;;;;;14.07;2.33;;;;;;;;;;5055066;28;20052;-64
2022/09/16 14:35:57;;;;;;;14.52;2.58;;;;;;;;;;5055259;28;20086;-68
2022/09/16 14:38:37;;;;;;;10.52;2.53;;;;;;;;;;5055246;28;20516;-65
2022/09/16 14:41:08;;;;;;;13.20;2.42;;;;;;;;;;5054978;28;20045;-68
2022/09/16 14:43:37;;;;;;;12.25;2.33;;;;;;;;;;5055054;28;20520;-69
2022/09/16 14:46:07;;;;;;;13.82;3.03;;;;;;;;;;5055064;28;20017;-66
2022/09/16 14:48:36;;;;;;;10.23;2.65;;;;;;;;;;5054766;28;20047;-65
2022/09/16 14:51:08;;;;;;;12.65;3.00;;;;;;;;;;5054799;28;20121;-66
2022/09/16 14:53:35;;;;;;;8.93;2.25;;;;;;;;;;5054518;28;20497;-67
2022/09/16 14:56:01;;;;;;;11.82;2.80;;;;;;;;;;5054345;28;20391;-67
2022/09/16 14:58:31;;;;;;;13.50;3.25;;;;;;;;;;5054636;28;20102;-65
2022/09/16 15:01:14;;;;;;;14.27;2.58;;;;;;;;;;5054510;28;20391;-68
2022/09/16 15:03:42;;;;;;;;;;;;;;;;;;5054999;28;20472;-67
2022/09/16 15:06:15;;;;;;;10.70;2.40;;;;;;;;;;5054551;28;19917;-66
2022/09/16 15:08:44;;;;;;;;;;;;;;;;;;5054788;28;20031;-67
2022/09/16 15:11:22;;;;;;;12.50;2.85;;;;;;;;;;5054428;28;19913;-67